sensor_id;sensor_type;location;lat;lon;timestamp;temperature;humidity
19610;DHT22;9952;47.122;-1.638;2023-01-29T00:04:28;1.80;99.90
19610;DHT22;9952;47.122;-1.638;2023-01-29T00:09:10;1.70;99.90
19610;DHT22;9952;47.122;-1.638;2023-01-29T00:13:52;1.60;99.90
19610;DHT22;9952;47.122;-1.638;2023-01-29T00:18:37;1.60;99.90
19610;DHT22;9952;47.122;-1.638;2023-01-29T00:23:18;1.60;99.90
19610;DHT22;9952;47.122;-1.638;2023-01-29T00:27:59;1.50;99.90
19610;DHT22;9952;47.122;-1.638;2023-01-29T00:32:40;1.40;99.90
19610;DHT22;9952;47.122;-1.638;2023-01-29T00:37:20;1.30;99.90
19610;DHT22;9952;47.122;-1.638;2023-01-29T00:42:01;1.20;99.90
19610;DHT22;9952;47.122;-1.638;2023-01-29T00:47:00;1.10;99.90
19610;DHT22;9952;47.122;-1.638;2023-01-29T00:51:41;1.10;99.90
19610;DHT22;9952;47.122;-1.638;2023-01-29T00:56:26;1.00;99.90
19610;DHT22;9952;47.122;-1.638;2023-01-29T01:01:07;1.00;99.90
19610;DHT22;9952;47.122;-1.638;2023-01-29T01:05:47;0.90;99.90
19610;DHT22;9952;47.122;-1.638;2023-01-29T01:10:31;0.90;99.90
19610;DHT22;9952;47.122;-1.638;2023-01-29T01:15:12;0.90;99.90
19610;DHT22;9952;47.122;-1.638;2023-01-29T01:19:53;0.80;99.90
19610;DHT22;9952;47.122;-1.638;2023-01-29T01:24:34;0.80;99.90
19610;DHT22;9952;47.122;-1.638;2023-01-29T01:29:14;0.70;99.90
19610;DHT22;9952;47.122;-1.638;2023-01-29T01:33:55;0.70;99.90
19610;DHT22;9952;47.122;-1.638;2023-01-29T01:38:36;0.60;99.90
19610;DHT22;9952;47.122;-1.638;2023-01-29T01:43:23;0.60;99.90
19610;DHT22;9952;47.122;-1.638;2023-01-29T01:48:12;0.40;99.90
19610;DHT22;9952;47.122;-1.638;2023-01-29T01:52:59;0.40;99.90
19610;DHT22;9952;47.122;-1.638;2023-01-29T01:57:42;0.40;99.90
19610;DHT22;9952;47.122;-1.638;2023-01-29T02:02:24;0.40;99.90
19610;DHT22;9952;47.122;-1.638;2023-01-29T02:07:25;0.40;99.90
19610;DHT22;9952;47.122;-1.638;2023-01-29T02:12:24;0.40;99.90
19610;DHT22;9952;47.122;-1.638;2023-01-29T02:17:18;0.40;99.90
19610;DHT22;9952;47.122;-1.638;2023-01-29T02:32:52;0.50;99.90
19610;DHT22;9952;47.122;-1.638;2023-01-29T02:42:54;0.50;99.90
19610;DHT22;9952;47.122;-1.638;2023-01-29T02:52:34;0.60;99.90
19610;DHT22;9952;47.122;-1.638;2023-01-29T02:57:31;0.60;99.90
19610;DHT22;9952;47.122;-1.638;2023-01-29T03:02:18;0.60;99.90
19610;DHT22;9952;47.122;-1.638;2023-01-29T03:07:03;0.70;99.90
19610;DHT22;9952;47.122;-1.638;2023-01-29T03:11:50;0.70;99.90
19610;DHT22;9952;47.122;-1.638;2023-01-29T03:16:38;0.70;99.90
19610;DHT22;9952;47.122;-1.638;2023-01-29T03:21:26;0.80;99.90
19610;DHT22;9952;47.122;-1.638;2023-01-29T03:26:27;0.80;99.90
19610;DHT22;9952;47.122;-1.638;2023-01-29T03:31:27;0.80;99.90
19610;DHT22;9952;47.122;-1.638;2023-01-29T03:36:35;0.90;99.90
19610;DHT22;9952;47.122;-1.638;2023-01-29T03:41:29;0.90;99.90
19610;DHT22;9952;47.122;-1.638;2023-01-29T03:56:59;0.90;99.90
19610;DHT22;9952;47.122;-1.638;2023-01-29T04:01:55;0.90;99.90
19610;DHT22;9952;47.122;-1.638;2023-01-29T04:06:40;1.00;99.90
19610;DHT22;9952;47.122;-1.638;2023-01-29T04:11:22;1.00;99.90
19610;DHT22;9952;47.122;-1.638;2023-01-29T04:16:06;1.00;99.90
19610;DHT22;9952;47.122;-1.638;2023-01-29T04:20:50;1.00;99.90
19610;DHT22;9952;47.122;-1.638;2023-01-29T04:25:39;1.00;99.90
19610;DHT22;9952;47.122;-1.638;2023-01-29T04:30:31;0.90;99.90
19610;DHT22;9952;47.122;-1.638;2023-01-29T04:35:28;0.90;99.90
19610;DHT22;9952;47.122;-1.638;2023-01-29T04:45:06;0.80;99.90
19610;DHT22;9952;47.122;-1.638;2023-01-29T04:59:44;0.70;99.90
19610;DHT22;9952;47.122;-1.638;2023-01-29T05:04:28;0.70;99.90
19610;DHT22;9952;47.122;-1.638;2023-01-29T05:09:12;0.70;99.90
19610;DHT22;9952;47.122;-1.638;2023-01-29T05:13:55;0.70;99.90
19610;DHT22;9952;47.122;-1.638;2023-01-29T05:18:36;0.70;99.90
19610;DHT22;9952;47.122;-1.638;2023-01-29T05:23:19;0.70;99.90
19610;DHT22;9952;47.122;-1.638;2023-01-29T05:28:00;0.70;99.90
19610;DHT22;9952;47.122;-1.638;2023-01-29T05:32:51;0.80;99.90
19610;DHT22;9952;47.122;-1.638;2023-01-29T05:37:32;0.80;99.90
19610;DHT22;9952;47.122;-1.638;2023-01-29T05:42:12;0.80;99.90
19610;DHT22;9952;47.122;-1.638;2023-01-29T05:46:53;0.90;99.90
19610;DHT22;9952;47.122;-1.638;2023-01-29T05:51:34;0.90;99.90
19610;DHT22;9952;47.122;-1.638;2023-01-29T05:56:15;0.90;99.90
19610;DHT22;9952;47.122;-1.638;2023-01-29T06:00:55;0.90;99.90
19610;DHT22;9952;47.122;-1.638;2023-01-29T06:05:37;1.00;99.90
19610;DHT22;9952;47.122;-1.638;2023-01-29T06:10:18;1.00;99.90
19610;DHT22;9952;47.122;-1.638;2023-01-29T06:14:59;1.10;99.90
19610;DHT22;9952;47.122;-1.638;2023-01-29T06:19:39;1.10;99.90
19610;DHT22;9952;47.122;-1.638;2023-01-29T06:24:20;1.20;99.90
19610;DHT22;9952;47.122;-1.638;2023-01-29T06:29:01;1.10;99.90
19610;DHT22;9952;47.122;-1.638;2023-01-29T06:33:42;1.10;99.90
19610;DHT22;9952;47.122;-1.638;2023-01-29T06:38:23;1.10;99.90
19610;DHT22;9952;47.122;-1.638;2023-01-29T06:43:04;1.00;99.90
19610;DHT22;9952;47.122;-1.638;2023-01-29T06:47:44;0.90;99.90
19610;DHT22;9952;47.122;-1.638;2023-01-29T06:52:25;0.90;99.90
19610;DHT22;9952;47.122;-1.638;2023-01-29T06:57:08;0.80;99.90
19610;DHT22;9952;47.122;-1.638;2023-01-29T07:01:49;0.90;99.90
19610;DHT22;9952;47.122;-1.638;2023-01-29T07:06:30;0.90;99.90
19610;DHT22;9952;47.122;-1.638;2023-01-29T07:11:11;0.90;99.90
19610;DHT22;9952;47.122;-1.638;2023-01-29T07:15:52;1.00;99.90
19610;DHT22;9952;47.122;-1.638;2023-01-29T07:20:33;0.90;99.90
19610;DHT22;9952;47.122;-1.638;2023-01-29T07:25:13;0.90;99.90
19610;DHT22;9952;47.122;-1.638;2023-01-29T07:29:54;1.00;99.90
19610;DHT22;9952;47.122;-1.638;2023-01-29T07:34:35;1.00;99.90
19610;DHT22;9952;47.122;-1.638;2023-01-29T07:39:16;1.00;99.90
19610;DHT22;9952;47.122;-1.638;2023-01-29T07:43:56;1.10;99.90
19610;DHT22;9952;47.122;-1.638;2023-01-29T07:48:37;1.10;99.90
19610;DHT22;9952;47.122;-1.638;2023-01-29T07:53:18;1.10;99.90
19610;DHT22;9952;47.122;-1.638;2023-01-29T07:58:01;1.20;99.90
19610;DHT22;9952;47.122;-1.638;2023-01-29T08:02:42;1.30;99.90
19610;DHT22;9952;47.122;-1.638;2023-01-29T08:07:22;1.30;99.90
19610;DHT22;9952;47.122;-1.638;2023-01-29T08:12:03;1.40;99.90
19610;DHT22;9952;47.122;-1.638;2023-01-29T08:16:44;1.50;99.90
19610;DHT22;9952;47.122;-1.638;2023-01-29T08:21:25;1.60;99.90
19610;DHT22;9952;47.122;-1.638;2023-01-29T08:26:06;1.70;99.90
19610;DHT22;9952;47.122;-1.638;2023-01-29T08:30:46;1.80;99.90
19610;DHT22;9952;47.122;-1.638;2023-01-29T08:35:27;1.80;99.90
19610;DHT22;9952;47.122;-1.638;2023-01-29T08:40:09;1.90;99.90
19610;DHT22;9952;47.122;-1.638;2023-01-29T08:44:51;1.90;99.90
19610;DHT22;9952;47.122;-1.638;2023-01-29T08:49:32;2.00;99.90
19610;DHT22;9952;47.122;-1.638;2023-01-29T08:54:13;2.00;99.90
19610;DHT22;9952;47.122;-1.638;2023-01-29T08:58:54;2.10;99.90
19610;DHT22;9952;47.122;-1.638;2023-01-29T09:03:35;2.20;99.90
19610;DHT22;9952;47.122;-1.638;2023-01-29T09:08:16;2.50;99.90
19610;DHT22;9952;47.122;-1.638;2023-01-29T09:12:57;2.90;99.90
19610;DHT22;9952;47.122;-1.638;2023-01-29T09:17:37;3.30;99.90
19610;DHT22;9952;47.122;-1.638;2023-01-29T09:22:19;3.90;99.90
19610;DHT22;9952;47.122;-1.638;2023-01-29T09:27:00;4.20;99.90
19610;DHT22;9952;47.122;-1.638;2023-01-29T09:31:41;4.60;99.90
19610;DHT22;9952;47.122;-1.638;2023-01-29T09:36:22;4.90;99.90
19610;DHT22;9952;47.122;-1.638;2023-01-29T09:46:37;5.30;99.90
19610;DHT22;9952;47.122;-1.638;2023-01-29T09:51:27;5.60;99.90
19610;DHT22;9952;47.122;-1.638;2023-01-29T09:56:21;5.80;99.90
19610;DHT22;9952;47.122;-1.638;2023-01-29T10:01:22;6.00;99.90
19610;DHT22;9952;47.122;-1.638;2023-01-29T10:11:41;6.50;99.90
19610;DHT22;9952;47.122;-1.638;2023-01-29T10:21:36;6.80;99.90
19610;DHT22;9952;47.122;-1.638;2023-01-29T10:26:26;6.70;99.90
19610;DHT22;9952;47.122;-1.638;2023-01-29T10:31:25;6.80;99.90
19610;DHT22;9952;47.122;-1.638;2023-01-29T10:36:27;7.00;99.90
19610;DHT22;9952;47.122;-1.638;2023-01-29T10:51:51;7.30;99.90
19610;DHT22;9952;47.122;-1.638;2023-01-29T11:01:14;7.50;99.90
19610;DHT22;9952;47.122;-1.638;2023-01-29T11:15:41;7.40;99.90
19610;DHT22;9952;47.122;-1.638;2023-01-29T11:20:28;7.30;99.90
19610;DHT22;9952;47.122;-1.638;2023-01-29T11:25:17;7.20;99.90
19610;DHT22;9952;47.122;-1.638;2023-01-29T11:29:58;7.20;99.90
19610;DHT22;9952;47.122;-1.638;2023-01-29T11:34:59;7.00;99.90
19610;DHT22;9952;47.122;-1.638;2023-01-29T11:39:44;7.00;99.90
19610;DHT22;9952;47.122;-1.638;2023-01-29T11:44:27;7.10;99.90
19610;DHT22;9952;47.122;-1.638;2023-01-29T11:49:26;7.40;99.90
19610;DHT22;9952;47.122;-1.638;2023-01-29T11:54:14;7.60;99.90
19610;DHT22;9952;47.122;-1.638;2023-01-29T11:58:57;7.90;99.90
19610;DHT22;9952;47.122;-1.638;2023-01-29T12:03:52;8.10;99.90
19610;DHT22;9952;47.122;-1.638;2023-01-29T12:08:37;8.20;99.90
19610;DHT22;9952;47.122;-1.638;2023-01-29T12:13:25;7.80;99.90
19610;DHT22;9952;47.122;-1.638;2023-01-29T12:28:21;7.00;99.90
19610;DHT22;9952;47.122;-1.638;2023-01-29T12:33:27;6.70;99.90
19610;DHT22;9952;47.122;-1.638;2023-01-29T12:38:16;6.90;99.90
19610;DHT22;9952;47.122;-1.638;2023-01-29T12:43:04;7.30;99.90
19610;DHT22;9952;47.122;-1.638;2023-01-29T12:47:50;7.60;99.90
19610;DHT22;9952;47.122;-1.638;2023-01-29T12:58:00;7.90;99.90
19610;DHT22;9952;47.122;-1.638;2023-01-29T13:08:31;8.20;99.90
19610;DHT22;9952;47.122;-1.638;2023-01-29T13:13:37;8.30;99.90
19610;DHT22;9952;47.122;-1.638;2023-01-29T13:23:38;8.10;99.90
19610;DHT22;9952;47.122;-1.638;2023-01-29T13:28:22;8.20;99.90
19610;DHT22;9952;47.122;-1.638;2023-01-29T13:33:05;8.30;99.90
19610;DHT22;9952;47.122;-1.638;2023-01-29T13:37:51;8.50;99.90
19610;DHT22;9952;47.122;-1.638;2023-01-29T13:47:28;8.40;99.90
19610;DHT22;9952;47.122;-1.638;2023-01-29T14:02:28;8.70;99.90
19610;DHT22;9952;47.122;-1.638;2023-01-29T14:12:30;8.70;99.90
19610;DHT22;9952;47.122;-1.638;2023-01-29T14:17:12;8.80;99.90
19610;DHT22;9952;47.122;-1.638;2023-01-29T14:21:53;8.60;99.90
19610;DHT22;9952;47.122;-1.638;2023-01-29T14:31:29;8.50;99.90
19610;DHT22;9952;47.122;-1.638;2023-01-29T14:36:13;8.50;99.90
19610;DHT22;9952;47.122;-1.638;2023-01-29T14:41:12;8.60;99.90
19610;DHT22;9952;47.122;-1.638;2023-01-29T14:45:54;8.80;99.90
19610;DHT22;9952;47.122;-1.638;2023-01-29T14:50:58;8.70;99.90
19610;DHT22;9952;47.122;-1.638;2023-01-29T15:00:40;8.60;99.90
19610;DHT22;9952;47.122;-1.638;2023-01-29T15:05:30;8.40;99.90
19610;DHT22;9952;47.122;-1.638;2023-01-29T15:10:20;8.30;99.90
19610;DHT22;9952;47.122;-1.638;2023-01-29T15:20:31;8.00;99.90
19610;DHT22;9952;47.122;-1.638;2023-01-29T15:25:13;8.00;99.90
19610;DHT22;9952;47.122;-1.638;2023-01-29T15:29:58;7.90;99.90
19610;DHT22;9952;47.122;-1.638;2023-01-29T15:34:41;7.90;99.90
19610;DHT22;9952;47.122;-1.638;2023-01-29T15:39:24;7.90;99.90
19610;DHT22;9952;47.122;-1.638;2023-01-29T15:44:14;7.90;99.90
19610;DHT22;9952;47.122;-1.638;2023-01-29T15:48:58;7.90;99.90
19610;DHT22;9952;47.122;-1.638;2023-01-29T15:53:52;7.90;99.90
19610;DHT22;9952;47.122;-1.638;2023-01-29T15:58:33;7.80;99.90
19610;DHT22;9952;47.122;-1.638;2023-01-29T16:03:15;7.80;99.90
19610;DHT22;9952;47.122;-1.638;2023-01-29T16:07:56;7.80;99.90
19610;DHT22;9952;47.122;-1.638;2023-01-29T16:12:39;7.70;99.90
19610;DHT22;9952;47.122;-1.638;2023-01-29T16:17:30;7.60;99.90
19610;DHT22;9952;47.122;-1.638;2023-01-29T16:22:17;7.50;99.90
19610;DHT22;9952;47.122;-1.638;2023-01-29T16:27:05;7.40;99.90
19610;DHT22;9952;47.122;-1.638;2023-01-29T16:31:51;7.30;99.90
19610;DHT22;9952;47.122;-1.638;2023-01-29T16:36:32;7.20;99.90
19610;DHT22;9952;47.122;-1.638;2023-01-29T16:51:21;7.00;99.90
19610;DHT22;9952;47.122;-1.638;2023-01-29T16:56:06;6.90;99.90
19610;DHT22;9952;47.122;-1.638;2023-01-29T17:01:00;6.70;99.90
19610;DHT22;9952;47.122;-1.638;2023-01-29T17:05:41;6.60;99.90
19610;DHT22;9952;47.122;-1.638;2023-01-29T17:10:23;6.50;99.90
19610;DHT22;9952;47.122;-1.638;2023-01-29T17:15:29;6.50;99.90
19610;DHT22;9952;47.122;-1.638;2023-01-29T17:20:15;6.40;99.90
19610;DHT22;9952;47.122;-1.638;2023-01-29T17:24:56;6.40;99.90
19610;DHT22;9952;47.122;-1.638;2023-01-29T17:29:37;6.40;99.90
19610;DHT22;9952;47.122;-1.638;2023-01-29T17:34:18;6.30;99.90
19610;DHT22;9952;47.122;-1.638;2023-01-29T17:38:59;6.30;99.90
19610;DHT22;9952;47.122;-1.638;2023-01-29T17:43:40;6.30;99.90
19610;DHT22;9952;47.122;-1.638;2023-01-29T17:48:26;6.20;99.90
19610;DHT22;9952;47.122;-1.638;2023-01-29T17:53:07;6.10;99.90
19610;DHT22;9952;47.122;-1.638;2023-01-29T17:57:48;6.10;99.90
19610;DHT22;9952;47.122;-1.638;2023-01-29T18:02:29;6.10;99.90
19610;DHT22;9952;47.122;-1.638;2023-01-29T18:07:10;6.10;99.90
19610;DHT22;9952;47.122;-1.638;2023-01-29T18:11:51;6.10;99.90
19610;DHT22;9952;47.122;-1.638;2023-01-29T18:16:32;6.00;99.90
19610;DHT22;9952;47.122;-1.638;2023-01-29T18:21:17;6.00;99.90
19610;DHT22;9952;47.122;-1.638;2023-01-29T18:25:57;6.00;99.90
19610;DHT22;9952;47.122;-1.638;2023-01-29T18:30:38;6.00;99.90
19610;DHT22;9952;47.122;-1.638;2023-01-29T18:35:21;6.00;99.90
19610;DHT22;9952;47.122;-1.638;2023-01-29T18:40:02;6.00;99.90
19610;DHT22;9952;47.122;-1.638;2023-01-29T18:44:43;6.00;99.90
19610;DHT22;9952;47.122;-1.638;2023-01-29T18:49:24;5.90;99.90
19610;DHT22;9952;47.122;-1.638;2023-01-29T18:54:04;6.00;99.90
19610;DHT22;9952;47.122;-1.638;2023-01-29T18:58:45;6.00;99.90
19610;DHT22;9952;47.122;-1.638;2023-01-29T19:03:27;6.00;99.90
19610;DHT22;9952;47.122;-1.638;2023-01-29T19:08:09;5.90;99.90
19610;DHT22;9952;47.122;-1.638;2023-01-29T19:12:49;5.90;99.90
19610;DHT22;9952;47.122;-1.638;2023-01-29T19:17:30;5.80;99.90
19610;DHT22;9952;47.122;-1.638;2023-01-29T19:22:12;5.80;99.90
19610;DHT22;9952;47.122;-1.638;2023-01-29T19:26:53;5.80;99.90
19610;DHT22;9952;47.122;-1.638;2023-01-29T19:31:34;5.80;99.90
19610;DHT22;9952;47.122;-1.638;2023-01-29T19:36:15;5.90;99.90
19610;DHT22;9952;47.122;-1.638;2023-01-29T19:40:58;5.90;99.90
19610;DHT22;9952;47.122;-1.638;2023-01-29T19:45:40;5.90;99.90
19610;DHT22;9952;47.122;-1.638;2023-01-29T19:50:21;5.90;99.90
19610;DHT22;9952;47.122;-1.638;2023-01-29T19:55:05;5.90;99.90
19610;DHT22;9952;47.122;-1.638;2023-01-29T19:59:46;5.90;99.90
19610;DHT22;9952;47.122;-1.638;2023-01-29T20:04:27;5.90;99.90
19610;DHT22;9952;47.122;-1.638;2023-01-29T20:09:08;5.90;99.90
19610;DHT22;9952;47.122;-1.638;2023-01-29T20:13:50;5.90;99.90
19610;DHT22;9952;47.122;-1.638;2023-01-29T20:18:31;5.90;99.90
19610;DHT22;9952;47.122;-1.638;2023-01-29T20:23:14;5.90;99.90
19610;DHT22;9952;47.122;-1.638;2023-01-29T20:27:55;5.90;99.90
19610;DHT22;9952;47.122;-1.638;2023-01-29T20:32:36;5.90;99.90
19610;DHT22;9952;47.122;-1.638;2023-01-29T20:37:17;5.90;99.90
19610;DHT22;9952;47.122;-1.638;2023-01-29T20:41:59;5.80;99.90
19610;DHT22;9952;47.122;-1.638;2023-01-29T20:46:40;5.80;99.90
19610;DHT22;9952;47.122;-1.638;2023-01-29T20:51:22;5.80;99.90
19610;DHT22;9952;47.122;-1.638;2023-01-29T20:56:04;5.80;99.90
19610;DHT22;9952;47.122;-1.638;2023-01-29T21:00:45;5.80;99.90
19610;DHT22;9952;47.122;-1.638;2023-01-29T21:05:27;5.80;99.90
19610;DHT22;9952;47.122;-1.638;2023-01-29T21:10:08;5.80;99.90
19610;DHT22;9952;47.122;-1.638;2023-01-29T21:14:49;5.80;99.90
19610;DHT22;9952;47.122;-1.638;2023-01-29T21:19:29;5.80;99.90
19610;DHT22;9952;47.122;-1.638;2023-01-29T21:24:10;5.80;99.90
19610;DHT22;9952;47.122;-1.638;2023-01-29T21:28:52;5.70;99.90
19610;DHT22;9952;47.122;-1.638;2023-01-29T21:33:33;5.70;99.90
19610;DHT22;9952;47.122;-1.638;2023-01-29T21:38:14;5.70;99.90
19610;DHT22;9952;47.122;-1.638;2023-01-29T21:42:55;5.70;99.90
19610;DHT22;9952;47.122;-1.638;2023-01-29T21:47:51;5.70;99.90
19610;DHT22;9952;47.122;-1.638;2023-01-29T21:52:32;5.70;99.90
19610;DHT22;9952;47.122;-1.638;2023-01-29T21:57:13;5.70;99.90
19610;DHT22;9952;47.122;-1.638;2023-01-29T22:01:54;5.70;99.90
19610;DHT22;9952;47.122;-1.638;2023-01-29T22:06:35;5.70;99.90
19610;DHT22;9952;47.122;-1.638;2023-01-29T22:11:16;5.70;99.90
19610;DHT22;9952;47.122;-1.638;2023-01-29T22:15:57;5.70;99.90
19610;DHT22;9952;47.122;-1.638;2023-01-29T22:20:38;5.60;99.90
19610;DHT22;9952;47.122;-1.638;2023-01-29T22:25:19;5.60;99.90
19610;DHT22;9952;47.122;-1.638;2023-01-29T22:30:00;5.60;99.90
19610;DHT22;9952;47.122;-1.638;2023-01-29T22:34:40;5.60;99.90
19610;DHT22;9952;47.122;-1.638;2023-01-29T22:39:21;5.50;99.90
19610;DHT22;9952;47.122;-1.638;2023-01-29T22:44:02;5.50;99.90
19610;DHT22;9952;47.122;-1.638;2023-01-29T22:48:43;5.60;99.90
19610;DHT22;9952;47.122;-1.638;2023-01-29T22:53:25;5.60;99.90
19610;DHT22;9952;47.122;-1.638;2023-01-29T22:58:06;5.60;99.90
19610;DHT22;9952;47.122;-1.638;2023-01-29T23:02:47;5.60;99.90
19610;DHT22;9952;47.122;-1.638;2023-01-29T23:07:28;5.60;99.90
19610;DHT22;9952;47.122;-1.638;2023-01-29T23:12:09;5.60;99.90
19610;DHT22;9952;47.122;-1.638;2023-01-29T23:16:50;5.60;99.90
19610;DHT22;9952;47.122;-1.638;2023-01-29T23:21:30;5.60;99.90
19610;DHT22;9952;47.122;-1.638;2023-01-29T23:26:12;5.60;99.90
19610;DHT22;9952;47.122;-1.638;2023-01-29T23:31:29;5.60;99.90
19610;DHT22;9952;47.122;-1.638;2023-01-29T23:36:11;5.60;99.90
19610;DHT22;9952;47.122;-1.638;2023-01-29T23:40:52;5.60;99.90
19610;DHT22;9952;47.122;-1.638;2023-01-29T23:45:37;5.60;99.90
19610;DHT22;9952;47.122;-1.638;2023-01-29T23:50:18;5.60;99.90
19610;DHT22;9952;47.122;-1.638;2023-01-29T23:54:58;5.40;99.90
19610;DHT22;9952;47.122;-1.638;2023-01-29T23:59:39;5.40;99.90
